Time;durP1;ratioP1;P1;durP2;ratioP2;P2;SDS_P1;SDS_P2;PMS_P1;PMS_P2;Temp;Humidity;BMP_temperature;BMP_pressure;BME280_temperature;BME280_humidity;BME280_pressure;Samples;Min_cycle;Max_cycle;Signal;HPM_P1;HPM_P2
2023/06/12 00:01:03;;;;;;;7.97;4.78;;;20.10;74.40;;;;;;5068129;28;20024;-65
2023/06/12 00:03:29;;;;;;;6.07;4.47;;;20.10;74.60;;;;;;5069326;28;20109;-64
2023/06/12 00:06:00;;;;;;;7.30;4.35;;;20.10;74.50;;;;;;5067002;28;20056;-65
2023/06/12 00:08:31;;;;;;;6.93;4.15;;;20.10;74.60;;;;;;5066375;28;20115;-66
2023/06/12 00:10:57;;;;;;;6.35;4.20;;;20.00;74.40;;;;;;5063958;28;20139;-66
2023/06/12 00:13:23;;;;;;;6.10;4.20;;;20.00;74.50;;;;;;5069875;28;20040;-66
2023/06/12 00:15:49;;;;;;;6.50;4.13;;;20.00;74.20;;;;;;5064436;28;20044;-67
2023/06/12 00:18:15;;;;;;;6.03;4.15;;;19.90;74.50;;;;;;5068089;28;20044;-64
2023/06/12 00:20:41;;;;;;;6.45;4.20;;;19.90;74.50;;;;;;5063846;28;20032;-66
2023/06/12 00:23:10;;;;;;;6.63;4.63;;;19.90;74.30;;;;;;5054889;28;20063;-66
2023/06/12 00:25:36;;;;;;;4.35;3.95;;;19.90;74.40;;;;;;5051316;28;20113;-65
2023/06/12 00:28:01;;;;;;;6.70;3.83;;;19.80;74.40;;;;;;5055633;28;20041;-66
2023/06/12 00:30:27;;;;;;;5.18;3.65;;;19.80;74.60;;;;;;5065084;28;20043;-66
2023/06/12 00:32:52;;;;;;;6.10;3.80;;;19.80;74.50;;;;;;5066968;28;20033;-66
2023/06/12 00:35:19;;;;;;;8.35;4.13;;;19.70;74.70;;;;;;5068514;28;20048;-66
2023/06/12 00:37:48;;;;;;;7.90;3.88;;;19.70;74.70;;;;;;5063484;28;20557;-66
2023/06/12 00:40:15;;;;;;;8.23;3.90;;;19.60;74.60;;;;;;5053599;28;20402;-65
2023/06/12 00:42:49;;;;;;;6.55;4.03;;;19.60;74.70;;;;;;5058397;28;20045;-66
2023/06/12 00:45:16;;;;;;;5.70;3.25;;;19.60;74.80;;;;;;5058860;28;20542;-65
2023/06/12 00:47:45;;;;;;;8.45;3.85;;;19.50;75.20;;;;;;5052229;28;20049;-65
2023/06/12 00:50:12;;;;;;;6.28;3.70;;;19.50;75.30;;;;;;5045240;28;20188;-65
2023/06/12 00:52:49;;;;;;;8.20;4.10;;;19.40;75.30;;;;;;5038719;28;20080;-65
2023/06/12 00:55:15;;;;;;;10.73;4.03;;;19.40;75.50;;;;;;5066373;28;20056;-66
2023/06/12 00:57:43;;;;;;;5.30;4.22;;;19.40;75.70;;;;;;5066762;28;20044;-65
2023/06/12 01:00:11;;;;;;;4.93;3.40;;;19.30;75.90;;;;;;5066899;28;20043;-65
2023/06/12 01:02:42;;;;;;;8.10;4.05;;;19.20;76.30;;;;;;5068503;28;20049;-65
2023/06/12 01:05:11;;;;;;;3.97;3.47;;;19.20;76.50;;;;;;5065346;28;20041;-65
2023/06/12 01:07:50;;;;;;;6.63;3.60;;;19.20;76.50;;;;;;5060737;28;20541;-67
2023/06/12 01:10:33;;;;;;;6.50;3.75;;;19.10;76.60;;;;;;5055359;28;20374;-66
2023/06/12 01:13:00;;;;;;;4.25;3.50;;;19.10;77.00;;;;;;5058519;28;20402;-65
2023/06/12 01:15:25;;;;;;;4.38;3.35;;;19.00;76.90;;;;;;5067284;28;20044;-65
2023/06/12 01:17:51;;;;;;;6.95;3.58;;;19.00;77.10;;;;;;5070043;28;20399;-66
2023/06/12 01:20:17;;;;;;;8.25;3.53;;;18.90;77.20;;;;;;5064573;28;20044;-66
2023/06/12 01:22:50;;;;;;;11.00;3.60;;;18.90;77.60;;;;;;5071940;28;20046;-64
2023/06/12 01:25:43;;;;;;;5.00;3.50;;;18.80;77.90;;;;;;5068048;28;20056;-64
2023/06/12 01:28:27;;;;;;;4.28;3.33;;;18.80;78.00;;;;;;5067883;28;20044;-66
2023/06/12 01:31:18;;;;;;;6.10;3.40;;;18.80;78.50;;;;;;5050783;28;20044;-65
2023/06/12 01:33:54;;;;;;;7.13;3.80;;;18.70;78.40;;;;;;5071655;28;20478;-66
2023/06/12 01:36:25;;;;;;;9.32;3.53;;;18.70;78.70;;;;;;5063133;28;20041;-66
2023/06/12 01:38:58;;;;;;;4.57;3.10;;;18.60;78.60;;;;;;5056922;28;20087;-66
2023/06/12 01:41:27;;;;;;;5.13;3.60;;;18.50;78.90;;;;;;5056886;28;20094;-66
2023/06/12 01:43:53;;;;;;;5.72;3.50;;;18.50;79.10;;;;;;5057272;28;20041;-65
2023/06/12 01:46:19;;;;;;;5.22;3.17;;;18.50;79.20;;;;;;5057034;28;20028;-66
2023/06/12 01:48:44;;;;;;;7.32;3.65;;;18.40;79.60;;;;;;5043226;28;20060;-66
2023/06/12 01:51:10;;;;;;;6.57;3.70;;;18.40;79.60;;;;;;5062098;28;20052;-66
2023/06/12 01:53:36;;;;;;;6.68;3.42;;;18.40;79.70;;;;;;5056153;28;20402;-65
2023/06/12 01:56:02;;;;;;;8.45;3.40;;;18.30;79.90;;;;;;5054616;28;20087;-66
2023/06/12 01:58:27;;;;;;;6.50;3.03;;;18.30;80.00;;;;;;5059780;28;20064;-67
2023/06/12 02:00:53;;;;;;;6.43;3.65;;;18.20;80.20;;;;;;5060628;28;20111;-66
2023/06/12 02:03:22;;;;;;;5.82;3.17;;;18.20;80.30;;;;;;5058239;28;20053;-65
2023/06/12 02:05:51;;;;;;;6.18;3.38;;;18.20;80.50;;;;;;5056848;28;20052;-67
2023/06/12 02:08:17;;;;;;;5.13;3.45;;;18.20;80.80;;;;;;5054457;28;20056;-66
2023/06/12 02:10:43;;;;;;;8.10;3.35;;;18.10;80.90;;;;;;5060150;28;20090;-65
2023/06/12 02:13:08;;;;;;;6.60;3.30;;;18.10;81.00;;;;;;5057897;28;20640;-64
2023/06/12 02:15:34;;;;;;;7.72;3.45;;;18.00;81.40;;;;;;5056638;28;20037;-65
2023/06/12 02:18:00;;;;;;;5.75;3.15;;;18.00;81.60;;;;;;5043949;28;20693;-65
2023/06/12 02:20:26;;;;;;;7.38;3.38;;;18.00;81.70;;;;;;5061365;28;20044;-65
2023/06/12 02:22:51;;;;;;;5.80;3.13;;;17.90;82.00;;;;;;5066572;28;20056;-65
2023/06/12 02:25:17;;;;;;;10.63;3.35;;;17.90;82.20;;;;;;5068528;28;20067;-66
2023/06/12 02:27:42;;;;;;;4.55;3.15;;;17.90;82.40;;;;;;5066736;28;20032;-66
2023/06/12 02:30:09;;;;;;;7.18;3.22;;;17.80;82.70;;;;;;5062179;28;20093;-64
2023/06/12 02:32:35;;;;;;;5.13;2.80;;;17.80;83.10;;;;;;5066911;28;20083;-66
2023/06/12 02:35:01;;;;;;;5.97;3.03;;;17.80;83.10;;;;;;5061746;28;20175;-66
2023/06/12 02:37:28;;;;;;;8.60;3.17;;;17.80;83.60;;;;;;5057377;28;20131;-66
2023/06/12 02:39:54;;;;;;;6.10;3.05;;;17.70;84.00;;;;;;5063339;28;20047;-65
2023/06/12 02:42:19;;;;;;;8.93;2.90;;;17.70;84.30;;;;;;5061433;28;20041;-65
2023/06/12 02:44:45;;;;;;;8.43;3.20;;;17.60;84.50;;;;;;5060827;28;20067;-66
2023/06/12 02:47:11;;;;;;;5.75;3.92;;;17.60;85.10;;;;;;5055372;28;20055;-65
2023/06/12 02:49:44;;;;;;;8.20;3.25;;;17.50;85.20;;;;;;5046451;28;20083;-66
2023/06/12 02:52:10;;;;;;;8.43;3.10;;;17.50;85.50;;;;;;5070142;28;20044;-66
2023/06/12 02:54:36;;;;;;;5.95;3.28;;;17.40;85.80;;;;;;5067374;28;20043;-66
2023/06/12 02:57:02;;;;;;;7.47;3.13;;;17.40;86.10;;;;;;5067673;28;20044;-65
2023/06/12 02:59:28;;;;;;;5.88;3.20;;;17.30;86.40;;;;;;5069590;28;20041;-65
2023/06/12 03:01:53;;;;;;;6.75;3.03;;;17.30;86.70;;;;;;5066631;28;20028;-66
2023/06/12 03:04:20;;;;;;;3.72;3.22;;;17.30;87.00;;;;;;5066675;28;20052;-65
2023/06/12 03:06:48;;;;;;;7.68;3.47;;;17.20;87.50;;;;;;5054635;28;20033;-65
2023/06/12 03:09:15;;;;;;;5.22;3.10;;;17.10;87.70;;;;;;5052679;28;20051;-65
2023/06/12 03:11:42;;;;;;;5.28;3.15;;;17.10;88.10;;;;;;5085507;28;20040;-65
2023/06/12 03:14:08;;;;;;;5.63;3.13;;;17.00;88.40;;;;;;5056477;28;20052;-66
2023/06/12 03:16:34;;;;;;;7.30;2.92;;;17.00;88.80;;;;;;5059160;28;20051;-64
2023/06/12 03:19:00;;;;;;;4.25;3.05;;;17.00;89.10;;;;;;5060501;28;20897;-65
2023/06/12 03:21:26;;;;;;;7.35;2.92;;;16.90;89.40;;;;;;5070466;28;20036;-65
2023/06/12 03:23:51;;;;;;;5.70;2.83;;;16.90;89.70;;;;;;5066638;28;20029;-66
2023/06/12 03:26:17;;;;;;;4.57;3.40;;;16.80;90.30;;;;;;5051936;28;20047;-65
2023/06/12 03:28:45;;;;;;;5.20;3.38;;;16.90;90.10;;;;;;5055563;28;20063;-65
2023/06/12 03:31:11;;;;;;;4.13;2.90;;;16.80;90.60;;;;;;5053194;28;20115;-66
2023/06/12 03:33:37;;;;;;;6.10;4.15;;;16.80;90.40;;;;;;5059700;28;20085;-64
2023/06/12 03:36:03;;;;;;;5.90;3.33;;;16.70;90.50;;;;;;5061085;28;20041;-66
2023/06/12 03:38:28;;;;;;;6.07;3.33;;;16.70;90.70;;;;;;5059633;28;20119;-66
2023/06/12 03:40:54;;;;;;;4.13;3.00;;;16.60;90.90;;;;;;5056519;28;20457;-65
2023/06/12 03:43:20;;;;;;;10.18;3.00;;;16.70;91.10;;;;;;5089294;28;20438;-65
2023/06/12 03:45:45;;;;;;;5.82;3.50;;;16.60;91.30;;;;;;5068557;28;20040;-65
2023/06/12 03:48:11;;;;;;;8.30;3.53;;;16.50;91.40;;;;;;5060254;28;20074;-65
2023/06/12 03:50:37;;;;;;;6.25;3.50;;;16.50;91.60;;;;;;5058070;28;20047;-65
2023/06/12 03:53:03;;;;;;;6.90;3.67;;;16.50;91.70;;;;;;5052740;28;20052;-65
2023/06/12 03:55:29;;;;;;;8.45;3.63;;;16.50;91.90;;;;;;5056002;28;20052;-66
2023/06/12 03:57:55;;;;;;;4.35;3.42;;;16.50;92.10;;;;;;5056920;28;20045;-65
2023/06/12 04:00:21;;;;;;;5.75;3.45;;;16.50;92.20;;;;;;5051730;28;21289;-66
2023/06/12 04:02:47;;;;;;;6.30;3.60;;;16.50;92.40;;;;;;5053953;28;20072;-65
2023/06/12 04:05:13;;;;;;;7.47;3.78;;;16.60;92.50;;;;;;5064466;28;20439;-65
2023/06/12 04:07:39;;;;;;;5.30;3.33;;;16.60;92.60;;;;;;5101195;28;20040;-65
2023/06/12 04:10:07;;;;;;;5.05;3.40;;;16.60;92.70;;;;;;5066289;28;20165;-66
2023/06/12 04:12:32;;;;;;;4.88;3.17;;;16.60;93.00;;;;;;5055348;28;20059;-65
2023/06/12 04:14:58;;;;;;;7.20;3.60;;;16.60;93.00;;;;;;5066461;28;20032;-66
2023/06/12 04:17:24;;;;;;;4.40;3.03;;;16.60;93.20;;;;;;5067006;28;20514;-66
2023/06/12 04:19:49;;;;;;;4.20;3.50;;;16.70;93.40;;;;;;5061176;28;20025;-65
2023/06/12 04:22:16;;;;;;;5.35;3.40;;;16.70;93.40;;;;;;5057704;28;20040;-65
2023/06/12 04:24:43;;;;;;;6.68;3.50;;;16.70;93.60;;;;;;5054477;28;20049;-65
2023/06/12 04:27:10;;;;;;;8.05;3.40;;;16.80;93.70;;;;;;5054783;28;20051;-66
2023/06/12 04:29:40;;;;;;;8.02;3.28;;;16.90;93.90;;;;;;5054274;28;20048;-65
2023/06/12 04:32:07;;;;;;;5.95;3.47;;;16.90;94.00;;;;;;5058855;28;20052;-66
2023/06/12 04:34:45;;;;;;;7.60;2.90;;;16.90;94.10;;;;;;5053563;28;20748;-64
2023/06/12 04:37:13;;;;;;;8.32;3.58;;;17.00;94.00;;;;;;5059278;28;20068;-64
2023/06/12 04:39:40;;;;;;;4.80;3.50;;;17.00;94.20;;;;;;5069518;28;20379;-66
2023/06/12 04:42:08;;;;;;;5.40;3.65;;;17.10;94.20;;;;;;5066290;28;20134;-65
2023/06/12 04:44:35;;;;;;;7.70;3.22;;;17.10;94.40;;;;;;5055059;28;20115;-65
2023/06/12 04:47:11;;;;;;;6.35;3.55;;;17.20;94.40;;;;;;5052537;28;20679;-65
2023/06/12 04:49:40;;;;;;;6.03;3.20;;;17.30;94.60;;;;;;5080996;28;20044;-66
2023/06/12 04:52:12;;;;;;;7.28;4.43;;;17.40;94.50;;;;;;5051190;28;20051;-65
2023/06/12 04:54:41;;;;;;;7.22;3.58;;;17.50;94.50;;;;;;5058693;28;20128;-66
2023/06/12 04:57:08;;;;;;;6.05;3.53;;;17.50;94.60;;;;;;5077736;28;20507;-66
2023/06/12 04:59:37;;;;;;;7.25;4.18;;;17.60;94.60;;;;;;5052045;28;20035;-65
2023/06/12 05:02:03;;;;;;;6.53;3.45;;;17.70;94.60;;;;;;5057544;28;20028;-65
2023/06/12 05:04:29;;;;;;;6.00;3.05;;;17.80;94.60;;;;;;5073283;28;20517;-66
2023/06/12 05:06:56;;;;;;;7.80;3.05;;;17.90;94.50;;;;;;5058834;28;20040;-66
2023/06/12 05:09:21;;;;;;;9.52;3.42;;;18.00;94.40;;;;;;5084461;28;20395;-65
2023/06/12 05:11:47;;;;;;;6.85;3.58;;;18.10;94.30;;;;;;5062271;28;20054;-65
2023/06/12 05:14:13;;;;;;;7.22;3.42;;;18.10;94.00;;;;;;5065928;28;20056;-65
2023/06/12 05:16:38;;;;;;;6.65;3.30;;;18.20;94.00;;;;;;5054423;28;20045;-66
2023/06/12 05:19:05;;;;;;;5.40;2.88;;;18.40;93.80;;;;;;5072261;28;20036;-65
2023/06/12 05:21:31;;;;;;;7.35;3.00;;;18.50;93.70;;;;;;5068909;28;20037;-65
2023/06/12 05:23:56;;;;;;;9.60;3.83;;;18.60;93.40;;;;;;5070490;28;20119;-66
2023/06/12 05:26:23;;;;;;;7.22;3.33;;;18.60;93.10;;;;;;5070453;28;20537;-66
2023/06/12 05:28:48;;;;;;;8.05;3.42;;;18.70;92.90;;;;;;5070239;28;20044;-66
2023/06/12 05:31:14;;;;;;;7.68;3.72;;;18.80;92.70;;;;;;5070145;28;20509;-66
2023/06/12 05:33:40;;;;;;;9.95;3.92;;;18.90;92.60;;;;;;5073189;28;20036;-67
2023/06/12 05:36:07;;;;;;;9.57;3.67;;;19.00;92.40;;;;;;5070233;28;20464;-65
2023/06/12 05:38:33;;;;;;;7.10;3.90;;;19.20;92.40;;;;;;5053884;28;20044;-65
2023/06/12 05:40:59;;;;;;;8.50;3.92;;;19.30;92.20;;;;;;5070888;28;20040;-66
2023/06/12 05:43:24;;;;;;;8.65;4.00;;;19.40;92.00;;;;;;5070579;28;20040;-66
2023/06/12 05:45:50;;;;;;;7.35;3.60;;;19.50;91.80;;;;;;5084706;28;20067;-65
2023/06/12 05:48:18;;;;;;;8.10;3.70;;;19.60;91.60;;;;;;5070557;28;20399;-66
2023/06/12 05:50:43;;;;;;;9.40;4.10;;;19.70;91.50;;;;;;5072060;28;20749;-66
2023/06/12 05:53:09;;;;;;;6.18;3.97;;;19.90;91.40;;;;;;5071645;28;20047;-65
2023/06/12 05:55:35;;;;;;;11.63;4.05;;;20.00;91.20;;;;;;5071261;28;20167;-66
2023/06/12 05:58:01;;;;;;;10.00;3.83;;;20.10;91.00;;;;;;5071362;28;20102;-66
2023/06/12 06:00:26;;;;;;;11.20;3.90;;;20.30;90.90;;;;;;5072304;28;20041;-65
2023/06/12 06:02:52;;;;;;;9.15;4.15;;;20.40;90.80;;;;;;5069417;28;20408;-65
2023/06/12 06:05:18;;;;;;;8.57;3.92;;;20.60;90.50;;;;;;5070384;28;20526;-64
2023/06/12 06:07:44;;;;;;;11.70;3.97;;;20.80;90.20;;;;;;5070757;28;20072;-66
2023/06/12 06:10:11;;;;;;;10.02;3.50;;;20.90;90.00;;;;;;5070814;28;20041;-65
2023/06/12 06:12:37;;;;;;;9.38;3.55;;;21.00;89.90;;;;;;5067913;28;20518;-65
2023/06/12 06:15:03;;;;;;;7.40;3.83;;;21.00;88.30;;;;;;5071454;28;20044;-66
2023/06/12 06:17:28;;;;;;;7.68;3.63;;;21.00;87.70;;;;;;5070429;28;20119;-65
2023/06/12 06:19:54;;;;;;;9.60;3.70;;;21.10;87.90;;;;;;5070731;28;20067;-65
2023/06/12 06:22:22;;;;;;;8.30;3.42;;;21.10;88.20;;;;;;5070492;28;20043;-64
2023/06/12 06:24:48;;;;;;;6.18;4.20;;;21.10;87.60;;;;;;5070540;28;20048;-65
2023/06/12 06:27:13;;;;;;;5.93;3.47;;;21.10;87.20;;;;;;5053312;28;20049;-65
2023/06/12 06:29:39;;;;;;;6.97;3.72;;;21.00;87.00;;;;;;5053698;28;20056;-66
2023/06/12 06:32:05;;;;;;;7.65;3.58;;;21.00;86.80;;;;;;5071171;28;20462;-65
2023/06/12 06:34:31;;;;;;;9.18;4.28;;;21.10;87.00;;;;;;5071167;28;20088;-66
2023/06/12 06:36:56;;;;;;;8.95;3.78;;;21.10;87.00;;;;;;5070515;28;20044;-65
2023/06/12 06:39:22;;;;;;;9.15;3.78;;;21.10;86.80;;;;;;5070619;28;20049;-65
2023/06/12 06:41:48;;;;;;;7.05;3.92;;;21.20;86.70;;;;;;5071876;28;20044;-67
2023/06/12 06:44:14;;;;;;;7.03;3.88;;;21.30;86.60;;;;;;5070922;28;20060;-65
2023/06/12 06:46:39;;;;;;;8.60;3.70;;;21.40;86.10;;;;;;5071965;28;20150;-64
2023/06/12 06:49:05;;;;;;;7.40;4.05;;;21.50;87.20;;;;;;5070829;28;20041;-64
2023/06/12 06:51:31;;;;;;;9.98;3.33;;;21.60;88.30;;;;;;5069748;28;20055;-65
2023/06/12 06:53:57;;;;;;;8.57;4.35;;;21.80;87.90;;;;;;5071353;28;20044;-65
2023/06/12 06:56:23;;;;;;;6.97;3.42;;;22.00;87.50;;;;;;5070221;28;20487;-64
2023/06/12 06:58:49;;;;;;;11.45;3.97;;;22.20;87.10;;;;;;5052967;28;20653;-65
2023/06/12 07:01:15;;;;;;;7.68;3.83;;;22.50;86.50;;;;;;5069207;28;20447;-66
2023/06/12 07:03:41;;;;;;;4.90;3.60;;;22.70;85.60;;;;;;5069540;28;20666;-65
2023/06/12 07:06:07;;;;;;;6.00;3.80;;;22.90;83.90;;;;;;5070551;28;20044;-65
2023/06/12 07:08:33;;;;;;;5.85;3.63;;;23.10;83.90;;;;;;5070121;28;20131;-66
2023/06/12 07:10:59;;;;;;;11.25;3.78;;;23.30;83.90;;;;;;5069538;28;20120;-65
2023/06/12 07:13:24;;;;;;;7.07;4.15;;;23.40;81.90;;;;;;5069850;28;20052;-64
2023/06/12 07:15:51;;;;;;;5.00;3.60;;;23.40;81.90;;;;;;5068856;28;20036;-65
2023/06/12 07:18:17;;;;;;;7.00;3.90;;;23.60;81.40;;;;;;5069154;28;20055;-64
2023/06/12 07:20:43;;;;;;;7.40;3.90;;;23.60;81.00;;;;;;5069955;28;20033;-66
2023/06/12 07:23:08;;;;;;;7.63;3.90;;;23.60;80.70;;;;;;5068854;28;20041;-64
2023/06/12 07:25:34;;;;;;;6.80;3.80;;;23.70;81.20;;;;;;5069239;28;20102;-67
2023/06/12 07:28:00;;;;;;;5.30;3.47;;;23.90;80.50;;;;;;5069276;28;20051;-65
2023/06/12 07:30:26;;;;;;;7.03;3.90;;;24.10;81.40;;;;;;5069355;28;20433;-65
2023/06/12 07:32:52;;;;;;;6.80;3.83;;;24.40;80.40;;;;;;5069380;28;20051;-66
2023/06/12 07:35:18;;;;;;;7.18;3.72;;;24.60;79.70;;;;;;5052127;28;20094;-66
2023/06/12 07:37:45;;;;;;;6.78;3.83;;;24.70;79.30;;;;;;5068744;28;20068;-65
2023/06/12 07:40:11;;;;;;;8.35;3.78;;;24.60;78.90;;;;;;5069269;28;20438;-66
2023/06/12 07:42:37;;;;;;;6.90;3.80;;;24.80;79.40;;;;;;5069713;28;20037;-65
2023/06/12 07:45:03;;;;;;;5.07;3.47;;;25.00;78.90;;;;;;5070184;28;20093;-65
2023/06/12 07:47:29;;;;;;;10.38;3.67;;;25.20;78.70;;;;;;5069945;28;20048;-66
2023/06/12 07:49:54;;;;;;;12.35;4.50;;;25.40;78.30;;;;;;5068441;28;20051;-65
2023/06/12 07:52:21;;;;;;;7.63;3.72;;;25.50;77.70;;;;;;5068856;28;20496;-65
2023/06/12 07:54:48;;;;;;;10.45;4.30;;;25.70;77.60;;;;;;5069532;28;20518;-66
2023/06/12 07:57:13;;;;;;;9.55;4.22;;;25.90;77.50;;;;;;5069733;28;20040;-65
2023/06/12 07:59:39;;;;;;;9.85;4.47;;;25.90;77.00;;;;;;5068582;28;20036;-65
2023/06/12 08:02:06;;;;;;;9.95;4.57;;;26.10;77.40;;;;;;5062716;28;20365;-66
2023/06/12 08:04:33;;;;;;;9.75;4.18;;;26.30;76.30;;;;;;5068534;28;21621;-64
2023/06/12 08:07:00;;;;;;;11.07;4.47;;;26.40;75.60;;;;;;5068723;28;20037;-65
2023/06/12 08:09:26;;;;;;;7.82;3.83;;;26.50;76.30;;;;;;5068568;28;20080;-64
2023/06/12 08:11:52;;;;;;;9.68;4.25;;;26.50;76.10;;;;;;5069542;28;20129;-66
2023/06/12 08:14:18;;;;;;;7.72;4.18;;;26.80;75.50;;;;;;5069449;28;20040;-67
2023/06/12 08:16:45;;;;;;;7.25;4.47;;;26.90;74.40;;;;;;5068918;28;20044;-65
2023/06/12 08:19:12;;;;;;;6.18;4.32;;;26.90;74.20;;;;;;5069078;28;20044;-66
2023/06/12 08:21:39;;;;;;;9.00;3.95;;;27.00;74.00;;;;;;5069668;28;20130;-66
2023/06/12 08:24:09;;;;;;;7.68;4.10;;;27.10;74.60;;;;;;5068570;28;20071;-67
2023/06/12 08:26:35;;;;;;;6.00;4.47;;;27.30;74.00;;;;;;5068730;28;20049;-64
2023/06/12 08:29:00;;;;;;;8.73;4.35;;;27.40;73.20;;;;;;5068632;28;20032;-64
2023/06/12 08:31:26;;;;;;;8.93;4.10;;;27.50;72.40;;;;;;5069326;28;20067;-65
2023/06/12 08:33:51;;;;;;;7.15;3.95;;;27.50;71.50;;;;;;5068184;28;20063;-65
2023/06/12 08:36:17;;;;;;;8.48;4.82;;;27.70;72.00;;;;;;5068278;28;20036;-66
2023/06/12 08:38:43;;;;;;;7.30;4.10;;;27.80;71.90;;;;;;5068370;28;20041;-66
2023/06/12 08:41:09;;;;;;;8.02;3.97;;;28.00;72.90;;;;;;5065529;28;20085;-65
2023/06/12 08:43:35;;;;;;;8.00;4.05;;;28.10;73.70;;;;;;5067775;28;20082;-65
2023/06/12 08:46:04;;;;;;;7.38;3.55;;;28.30;73.20;;;;;;5069693;28;20054;-65
2023/06/12 08:48:32;;;;;;;6.65;4.43;;;28.50;73.50;;;;;;5070527;28;20522;-67
2023/06/12 08:51:00;;;;;;;8.68;4.10;;;28.50;71.60;;;;;;5068594;28;20110;-66
2023/06/12 08:53:27;;;;;;;4.53;3.40;;;28.60;71.50;;;;;;5069006;28;20062;-65
2023/06/12 08:55:55;;;;;;;5.18;3.78;;;28.70;72.80;;;;;;5068992;28;20044;-65
2023/06/12 08:58:21;;;;;;;8.30;4.10;;;28.90;71.40;;;;;;5068213;28;20086;-67
2023/06/12 09:00:47;;;;;;;5.50;4.00;;;28.90;69.90;;;;;;5068136;28;20040;-65
2023/06/12 09:03:14;;;;;;;8.27;3.90;;;28.90;70.00;;;;;;5067230;28;20106;-65
2023/06/12 09:05:39;;;;;;;8.35;4.10;;;28.90;68.70;;;;;;5069038;28;20113;-64
2023/06/12 09:08:06;;;;;;;6.28;4.13;;;28.80;70.10;;;;;;5068074;28;20044;-64
2023/06/12 09:10:33;;;;;;;6.78;3.95;;;29.00;70.50;;;;;;5067961;28;20472;-65
2023/06/12 09:13:01;;;;;;;7.07;4.25;;;29.10;68.00;;;;;;5068463;28;20158;-66
2023/06/12 09:15:27;;;;;;;7.18;3.90;;;29.30;67.80;;;;;;5068549;28;20412;-64
2023/06/12 09:17:55;;;;;;;5.95;3.60;;;29.40;67.20;;;;;;5067959;28;20075;-66
2023/06/12 09:20:33;;;;;;;6.78;3.75;;;29.50;67.70;;;;;;5067808;28;20040;-66
2023/06/12 09:23:04;;;;;;;6.90;3.97;;;29.70;68.10;;;;;;5080513;28;20039;-66
2023/06/12 09:25:34;;;;;;;;;;;29.70;67.10;;;;;;5068490;28;20048;-66
2023/06/12 09:28:03;;;;;;;7.47;3.80;;;29.90;68.50;;;;;;5068744;28;19927;-66
2023/06/12 09:30:30;;;;;;;7.03;4.07;;;30.10;68.50;;;;;;5068385;28;20080;-65
2023/06/12 09:32:56;;;;;;;5.78;4.40;;;30.10;67.40;;;;;;5067588;28;20093;-65
2023/06/12 09:35:21;;;;;;;8.85;3.92;;;30.20;67.30;;;;;;5069414;28;20040;-65
2023/06/12 09:37:48;;;;;;;6.70;4.07;;;30.30;67.50;;;;;;5070776;28;20040;-65
2023/06/12 09:40:15;;;;;;;7.57;3.97;;;30.40;64.60;;;;;;5071407;28;20040;-64
2023/06/12 09:42:42;;;;;;;5.47;4.35;;;30.40;63.60;;;;;;5071837;28;20039;-65
2023/06/12 09:45:13;;;;;;;5.45;4.18;;;30.40;62.50;;;;;;5071118;28;20048;-66
2023/06/12 09:47:45;;;;;;;7.95;4.25;;;30.40;62.40;;;;;;5071607;28;20556;-65
2023/06/12 09:50:15;;;;;;;10.00;4.68;;;30.40;61.40;;;;;;5071288;28;20079;-64
2023/06/12 09:52:45;;;;;;;8.20;4.72;;;30.50;61.20;;;;;;5071324;28;20040;-65
2023/06/12 09:55:13;;;;;;;6.05;4.50;;;30.40;59.90;;;;;;5071350;28;20045;-64
2023/06/12 09:57:52;;;;;;;5.68;4.50;;;30.30;59.00;;;;;;5068436;28;20033;-65
2023/06/12 10:00:19;;;;;;;6.38;4.78;;;30.30;60.90;;;;;;5071414;28;20044;-67
2023/06/12 10:02:53;;;;;;;6.13;4.68;;;30.50;60.40;;;;;;5071090;28;20119;-66
2023/06/12 10:05:35;;;;;;;10.18;4.30;;;30.60;59.60;;;;;;5070559;28;20072;-66
2023/06/12 10:08:03;;;;;;;;;;;30.60;59.50;;;;;;5055007;28;20044;-65
2023/06/12 10:10:30;;;;;;;6.10;4.40;;;30.70;60.60;;;;;;5070383;28;20294;-66
2023/06/12 10:12:56;;;;;;;6.68;4.82;;;30.90;59.50;;;;;;5071246;28;20048;-65
2023/06/12 10:15:22;;;;;;;5.38;4.88;;;31.00;59.60;;;;;;5070029;28;20044;-64
2023/06/12 10:17:51;;;;;;;6.43;4.68;;;31.20;60.60;;;;;;5071236;28;20048;-67
2023/06/12 10:20:19;;;;;;;5.28;4.50;;;31.40;59.40;;;;;;5070611;28;20479;-65
2023/06/12 10:22:46;;;;;;;6.22;5.05;;;31.50;59.20;;;;;;5071754;28;20371;-65
2023/06/12 10:25:12;;;;;;;5.63;5.07;;;31.50;55.90;;;;;;5068563;28;20055;-65
2023/06/12 10:27:39;;;;;;;6.13;4.80;;;31.40;54.20;;;;;;5071607;28;20044;-65
2023/06/12 10:30:12;;;;;;;8.05;4.68;;;31.40;55.20;;;;;;5067979;28;20059;-64
2023/06/12 10:32:40;;;;;;;7.25;4.63;;;31.60;54.10;;;;;;5068851;28;20123;-65
2023/06/12 10:35:06;;;;;;;9.98;5.32;;;31.70;53.90;;;;;;5069821;28;20040;-66
2023/06/12 10:37:42;;;;;;;5.55;4.72;;;31.80;53.20;;;;;;5069555;28;20102;-64
2023/06/12 10:40:16;;;;;;;6.50;4.60;;;31.80;53.30;;;;;;5071036;28;20052;-65
2023/06/12 10:42:54;;;;;;;6.07;4.32;;;31.90;52.50;;;;;;5070078;28;20511;-65
2023/06/12 10:45:26;;;;;;;7.40;4.35;;;32.10;52.20;;;;;;5070187;28;20044;-66
2023/06/12 10:48:07;;;;;;;5.63;4.50;;;32.20;50.90;;;;;;5069082;28;20463;-65
2023/06/12 10:50:37;;;;;;;7.60;4.75;;;32.20;50.90;;;;;;5068947;28;20131;-65
2023/06/12 10:53:14;;;;;;;4.57;4.17;;;32.20;50.00;;;;;;5069291;28;20064;-65
2023/06/12 10:55:41;;;;;;;5.20;4.50;;;32.20;50.40;;;;;;5071067;28;20040;-65
2023/06/12 10:58:19;;;;;;;6.45;4.25;;;32.30;50.60;;;;;;5071592;28;20048;-66
2023/06/12 11:00:50;;;;;;;5.57;3.80;;;32.30;47.90;;;;;;5069532;28;20072;-65
2023/06/12 11:03:26;;;;;;;4.60;4.03;;;32.30;49.50;;;;;;5070372;28;20081;-64
2023/06/12 11:05:58;;;;;;;4.57;4.18;;;32.40;50.00;;;;;;5069991;28;20079;-67
2023/06/12 11:08:27;;;;;;;5.30;4.35;;;32.50;49.10;;;;;;5070391;28;20040;-66
2023/06/12 11:10:53;;;;;;;6.07;4.72;;;32.40;48.40;;;;;;5069752;28;20116;-65
2023/06/12 11:13:26;;;;;;;6.38;4.40;;;32.40;48.60;;;;;;5069420;28;20040;-64
2023/06/12 11:15:52;;;;;;;8.77;4.97;;;32.50;48.60;;;;;;5068339;28;20083;-65
2023/06/12 11:18:19;;;;;;;5.03;4.30;;;32.50;48.10;;;;;;5070313;28;20037;-66
2023/06/12 11:20:54;;;;;;;5.22;4.72;;;32.40;48.80;;;;;;5069266;28;20119;-66
2023/06/12 11:23:24;;;;;;;9.07;5.03;;;32.20;48.40;;;;;;5069501;28;20494;-65
2023/06/12 11:25:53;;;;;;;5.73;4.50;;;32.20;48.60;;;;;;5071157;28;20037;-64
2023/06/12 11:28:19;;;;;;;5.40;4.90;;;32.30;48.80;;;;;;5069528;28;20048;-66
2023/06/12 11:30:48;;;;;;;5.45;4.95;;;32.30;48.00;;;;;;5070171;28;20040;-66
2023/06/12 11:33:16;;;;;;;5.50;4.75;;;32.20;46.30;;;;;;5070362;28;20033;-65
2023/06/12 11:35:43;;;;;;;4.93;4.53;;;32.30;46.70;;;;;;5069233;28;20070;-68
2023/06/12 11:38:12;;;;;;;7.53;5.47;;;32.20;47.00;;;;;;5069738;28;20036;-63
2023/06/12 11:40:39;;;;;;;6.05;5.10;;;32.10;46.20;;;;;;5103604;28;20433;-65
2023/06/12 11:43:05;;;;;;;6.20;5.60;;;32.00;46.20;;;;;;5066423;28;20167;-66
2023/06/12 11:45:32;;;;;;;6.22;5.50;;;32.00;47.30;;;;;;5069595;28;20109;-64
2023/06/12 11:47:59;;;;;;;6.15;5.40;;;31.90;46.70;;;;;;5069793;28;20041;-67
2023/06/12 11:50:25;;;;;;;5.97;5.38;;;31.90;46.60;;;;;;5050169;28;20049;-66
2023/06/12 11:52:52;;;;;;;7.03;5.90;;;31.80;46.40;;;;;;5068371;28;20049;-65
2023/06/12 11:55:21;;;;;;;6.13;5.57;;;31.70;45.60;;;;;;5067112;28;20123;-66
2023/06/12 11:57:51;;;;;;;6.60;5.97;;;31.60;45.40;;;;;;5068676;28;20134;-65
2023/06/12 12:00:19;;;;;;;5.95;5.45;;;31.60;45.50;;;;;;5069275;28;20071;-66
2023/06/12 12:02:51;;;;;;;7.10;6.10;;;31.60;45.70;;;;;;5069111;28;20496;-65
2023/06/12 12:05:20;;;;;;;5.78;5.25;;;31.40;45.60;;;;;;5068978;28;20125;-65
2023/06/12 12:07:55;;;;;;;6.55;5.63;;;31.30;44.60;;;;;;5052286;28;20045;-64
2023/06/12 12:10:22;;;;;;;6.13;5.57;;;31.30;44.60;;;;;;5052826;28;20067;-65
2023/06/12 12:12:49;;;;;;;6.60;5.32;;;31.20;43.90;;;;;;5068931;28;20044;-66
2023/06/12 12:15:16;;;;;;;5.85;5.28;;;31.10;44.00;;;;;;5068754;28;20067;-65
2023/06/12 12:17:42;;;;;;;5.65;5.15;;;31.10;44.00;;;;;;5064477;28;20039;-65
2023/06/12 12:20:17;;;;;;;7.88;5.13;;;31.00;44.10;;;;;;5068456;28;20044;-64
2023/06/12 12:22:46;;;;;;;6.97;5.38;;;31.00;44.30;;;;;;5068288;28;20040;-65
2023/06/12 12:25:21;;;;;;;5.60;5.10;;;31.00;44.40;;;;;;5069963;28;20036;-66
2023/06/12 12:27:49;;;;;;;8.98;5.18;;;30.90;44.10;;;;;;5069330;28;20111;-65
2023/06/12 12:30:15;;;;;;;5.53;4.90;;;30.80;44.60;;;;;;5069683;28;20040;-65
2023/06/12 12:32:46;;;;;;;7.10;5.55;;;30.90;44.10;;;;;;5052328;28;20189;-66
2023/06/12 12:35:14;;;;;;;6.97;4.95;;;30.80;43.90;;;;;;5066433;28;20074;-65
2023/06/12 12:37:40;;;;;;;6.00;5.07;;;30.70;43.50;;;;;;5068481;28;20050;-65
2023/06/12 12:40:10;;;;;;;7.75;5.22;;;30.60;43.40;;;;;;5067244;28;20041;-66
2023/06/12 12:42:41;;;;;;;5.60;4.45;;;30.50;43.20;;;;;;5069495;28;20044;-65
2023/06/12 12:45:09;;;;;;;6.57;4.65;;;30.60;43.70;;;;;;5068222;28;20068;-64
2023/06/12 12:47:36;;;;;;;7.38;5.20;;;30.60;43.90;;;;;;5067654;28;20036;-65
2023/06/12 12:50:03;;;;;;;5.68;4.90;;;30.70;44.00;;;;;;5069159;28;20043;-66